createdAt,value
2023-01-25T00:01:06.686Z,25.35
2023-01-25T00:06:10.152Z,21.83
2023-01-25T00:11:17.101Z,26.05
2023-01-25T00:16:20.932Z,24.15
2023-01-25T00:21:26.492Z,23.40
2023-01-25T00:26:32.872Z,25.48
2023-01-25T00:31:42.712Z,21.63
2023-01-25T00:36:46.519Z,19.77
2023-01-25T00:41:51.249Z,17.48
2023-01-25T00:46:54.832Z,18.95
2023-01-25T00:51:58.590Z,21.20
2023-01-25T00:57:03.539Z,21.35
2023-01-25T01:02:07.041Z,20.27
2023-01-25T01:07:12.549Z,20.23
2023-01-25T01:12:17.573Z,20.00
2023-01-25T01:17:20.972Z,20.98
2023-01-25T01:22:24.422Z,23.30
2023-01-25T01:27:29.170Z,19.45
2023-01-25T01:32:33.499Z,20.40
2023-01-25T01:37:37.377Z,23.60
2023-01-25T01:43:00.967Z,26.52
2023-01-25T01:48:04.819Z,25.85
2023-01-25T01:53:08.926Z,23.67
2023-01-25T01:58:14.568Z,15.00
2023-01-25T02:03:18.679Z,13.05
2023-01-25T02:08:22.674Z,15.07
2023-01-25T02:13:28.081Z,15.00
2023-01-25T02:18:32.339Z,16.33
2023-01-25T02:23:43.363Z,17.08
2023-01-25T02:28:53.268Z,16.33
2023-01-25T02:33:57.319Z,16.38
2023-01-25T02:39:03.206Z,13.55
2023-01-25T02:44:11.325Z,10.85
2023-01-25T02:49:15.173Z,13.15
2023-01-25T02:54:20.745Z,16.02
2023-01-25T02:59:25.657Z,16.38
2023-01-25T03:04:29.017Z,14.18
2023-01-25T03:09:32.407Z,15.95
2023-01-25T03:14:37.239Z,16.10
2023-01-25T03:19:40.675Z,16.33
2023-01-25T03:24:44.029Z,16.58
2023-01-25T03:29:48.928Z,16.83
2023-01-25T03:34:52.865Z,15.75
2023-01-25T03:39:56.302Z,14.88
2023-01-25T03:45:01.088Z,16.98
2023-01-25T03:50:04.923Z,15.90
2023-01-25T03:55:09.817Z,16.52
2023-01-25T04:00:16.085Z,15.32
2023-01-25T04:05:19.526Z,15.05
2023-01-25T04:10:22.959Z,14.00
2023-01-25T04:15:27.990Z,15.25
2023-01-25T04:20:31.434Z,17.05
2023-01-25T04:25:35.148Z,15.40
2023-01-25T04:30:39.960Z,15.40
2023-01-25T04:35:44.706Z,16.10
2023-01-25T04:40:48.278Z,16.98
2023-01-25T04:45:53.849Z,15.52
2023-01-25T04:50:57.453Z,14.30
2023-01-25T04:56:00.924Z,14.80
2023-01-25T05:01:07.374Z,16.33
2023-01-25T05:06:11.036Z,17.50
2023-01-25T05:11:14.468Z,17.25
2023-01-25T05:16:19.908Z,17.42
2023-01-25T05:21:45.049Z,16.77
2023-01-25T05:27:04.740Z,15.40
2023-01-25T05:32:11.408Z,15.38
2023-01-25T05:37:17.798Z,15.48
2023-01-25T05:42:21.485Z,14.43
2023-01-25T05:47:26.322Z,16.25
2023-01-25T05:52:29.756Z,15.98
2023-01-25T05:57:33.159Z,17.90
2023-01-25T06:02:38.075Z,15.40
2023-01-25T06:07:41.636Z,17.20
2023-01-25T06:12:45.042Z,15.85
2023-01-25T06:17:49.801Z,16.83
2023-01-25T06:22:53.617Z,17.15
2023-01-25T06:27:57.253Z,15.57
2023-01-25T06:33:08.621Z,14.13
2023-01-25T06:38:12.677Z,14.77
2023-01-25T06:43:16.130Z,17.30
2023-01-25T06:48:21.645Z,17.05
2023-01-25T06:53:26.998Z,15.43
2023-01-25T06:58:31.265Z,16.80
2023-01-25T07:03:36.285Z,15.60
2023-01-25T07:08:40.288Z,14.35
2023-01-25T07:13:46.608Z,13.55
2023-01-25T07:18:51.465Z,14.85
2023-01-25T07:23:54.917Z,14.35
2023-01-25T07:29:00.033Z,12.20
2023-01-25T07:34:05.309Z,12.50
2023-01-25T07:39:10.198Z,11.82
2023-01-25T07:44:13.759Z,13.63
2023-01-25T07:49:18.927Z,13.25
2023-01-25T07:54:22.406Z,12.75
2023-01-25T07:59:26.872Z,13.45
2023-01-25T08:04:31.977Z,14.90
2023-01-25T08:09:35.530Z,13.43
2023-01-25T08:14:39.304Z,11.40
2023-01-25T08:19:44.342Z,43.05
2023-01-25T08:24:47.747Z,44.22
2023-01-25T08:29:53.784Z,16.95
2023-01-25T08:34:58.767Z,13.40
2023-01-25T08:40:02.731Z,14.57
2023-01-25T08:45:07.488Z,13.35
2023-01-25T08:50:13.070Z,12.77
2023-01-25T08:55:16.549Z,14.25
2023-01-25T09:00:21.060Z,46.63
2023-01-25T09:05:27.841Z,19.13
2023-01-25T09:10:32.102Z,14.95
2023-01-25T09:15:35.584Z,12.88
2023-01-25T09:20:41.141Z,16.23
2023-01-25T09:25:44.518Z,15.73
2023-01-25T09:31:14.450Z,13.73
2023-01-25T09:36:19.825Z,12.90
2023-01-25T09:41:44.301Z,13.73
2023-01-25T09:46:52.484Z,13.48
2023-01-25T09:52:14.602Z,13.43
2023-01-25T09:57:22.306Z,13.73
2023-01-25T10:02:39.642Z,14.15
2023-01-25T10:07:56.058Z,14.95
2023-01-25T10:12:59.483Z,15.75
2023-01-25T10:18:06.684Z,15.52
2023-01-25T10:23:33.378Z,16.20
2023-01-25T10:28:42.355Z,14.75
2023-01-25T10:33:47.621Z,15.55
2023-01-25T10:38:57.547Z,15.00
2023-01-25T10:44:18.510Z,14.93
2023-01-25T10:49:25.959Z,14.35
2023-01-25T10:54:30.815Z,14.27
2023-01-25T10:59:34.361Z,13.90
2023-01-25T11:04:39.326Z,12.98
2023-01-25T11:09:44.453Z,12.75
2023-01-25T11:14:50.822Z,7.50
2023-01-25T11:20:19.909Z,8.02
2023-01-25T11:25:31.517Z,8.60
2023-01-25T11:30:35.210Z,7.55
2023-01-25T11:35:45.104Z,8.40
2023-01-25T11:40:54.585Z,8.20
2023-01-25T11:46:18.326Z,7.75
2023-01-25T11:56:43.182Z,9.57
2023-01-25T12:02:01.825Z,9.77
2023-01-25T12:07:06.754Z,8.95
2023-01-25T12:12:22.874Z,9.27
2023-01-25T12:17:39.753Z,9.02
2023-01-25T12:22:55.893Z,9.70
2023-01-25T12:28:13.598Z,8.85
2023-01-25T12:33:22.476Z,14.55
2023-01-25T12:38:30.937Z,11.95
2023-01-25T12:43:41.460Z,9.95
2023-01-25T12:48:49.792Z,10.85
2023-01-25T12:53:54.674Z,10.68
2023-01-25T12:59:04.554Z,10.77
2023-01-25T13:04:24.558Z,9.27
2023-01-25T13:09:35.133Z,9.68
2023-01-25T13:14:41.021Z,8.35
2023-01-25T13:19:44.541Z,10.35
2023-01-25T13:25:19.727Z,11.93
2023-01-25T13:30:32.118Z,9.10
2023-01-25T13:35:40.883Z,9.60
2023-01-25T13:40:44.550Z,9.25
2023-01-25T13:45:52.146Z,10.40
2023-01-25T13:50:59.250Z,10.63
2023-01-25T13:56:04.399Z,11.65
2023-01-25T14:01:16.702Z,11.32
2023-01-25T14:06:23.301Z,12.85
2023-01-25T14:11:29.462Z,10.88
2023-01-25T14:16:34.362Z,11.75
2023-01-25T14:21:39.688Z,11.23
2023-01-25T14:26:47.377Z,9.70
2023-01-25T14:31:52.675Z,9.73
2023-01-25T14:37:07.217Z,10.30
2023-01-25T14:42:11.080Z,11.30
2023-01-25T14:47:31.164Z,10.80
2023-01-25T14:52:35.279Z,11.30
2023-01-25T14:57:41.103Z,10.82
2023-01-25T15:02:49.476Z,10.52
2023-01-25T15:07:54.767Z,11.55
2023-01-25T15:13:12.839Z,11.85
2023-01-25T15:18:46.875Z,10.98
2023-01-25T15:23:50.761Z,11.02
2023-01-25T15:28:56.740Z,12.10
2023-01-25T15:34:02.430Z,12.85
2023-01-25T15:39:05.928Z,11.75
2023-01-25T15:44:09.943Z,9.80
2023-01-25T15:49:19.125Z,11.23
2023-01-25T15:54:22.965Z,10.23
2023-01-25T15:59:27.167Z,9.10
2023-01-25T16:04:31.956Z,10.75
2023-01-25T16:09:35.435Z,10.65
2023-01-25T16:14:38.842Z,10.70
2023-01-25T16:19:43.755Z,13.20
2023-01-25T16:24:47.514Z,14.40
2023-01-25T16:29:50.910Z,14.95
2023-01-25T16:34:55.952Z,13.57
2023-01-25T16:39:59.363Z,10.77
2023-01-25T16:45:02.771Z,11.27
2023-01-25T16:50:13.499Z,13.73
2023-01-25T16:55:17.978Z,16.02
2023-01-25T17:00:22.277Z,15.68
2023-01-25T17:05:29.039Z,16.05
2023-01-25T17:10:35.831Z,15.88
2023-01-25T17:15:39.314Z,13.80
2023-01-25T17:20:44.108Z,13.55
2023-01-25T17:25:47.797Z,13.35
2023-01-25T17:30:54.306Z,12.45
2023-01-25T17:36:03.388Z,14.00
2023-01-25T17:41:08.340Z,13.02
2023-01-25T17:46:13.219Z,13.88
2023-01-25T17:51:18.085Z,14.35
2023-01-25T17:56:22.213Z,13.15
2023-01-25T18:01:28.357Z,11.43
2023-01-25T18:06:33.152Z,13.38
2023-01-25T18:11:40.016Z,11.68
2023-01-25T18:16:44.732Z,12.02
2023-01-25T18:21:49.633Z,11.07
2023-01-25T18:26:55.281Z,11.75
2023-01-25T18:31:58.748Z,12.63
2023-01-25T18:37:17.805Z,14.23
2023-01-25T18:42:22.422Z,15.05
2023-01-25T18:47:25.855Z,14.43
2023-01-25T18:52:30.949Z,17.05
2023-01-25T18:57:34.998Z,15.98
2023-01-25T19:02:38.862Z,15.85
2023-01-25T19:07:43.852Z,17.40
2023-01-25T19:12:47.223Z,18.55
2023-01-25T19:17:50.641Z,17.00
2023-01-25T19:22:56.155Z,15.27
2023-01-25T19:27:59.846Z,14.50
2023-01-25T19:33:04.071Z,16.85
2023-01-25T19:38:09.081Z,15.50
2023-01-25T19:43:12.845Z,19.27
2023-01-25T19:48:16.330Z,18.52
2023-01-25T19:53:21.151Z,18.33
2023-01-25T19:58:27.823Z,20.10
2023-01-25T20:03:31.633Z,22.10
2023-01-25T20:08:38.125Z,21.45
2023-01-25T20:13:42.336Z,22.58
2023-01-25T20:18:46.952Z,21.10
2023-01-25T20:23:55.117Z,21.83
2023-01-25T20:28:59.895Z,22.70
2023-01-25T20:34:05.950Z,21.60
2023-01-25T20:39:14.662Z,20.90
2023-01-25T20:44:18.707Z,22.10
2023-01-25T20:49:22.375Z,23.88
2023-01-25T20:54:27.213Z,26.33
2023-01-25T20:59:31.858Z,23.65
2023-01-25T21:04:35.370Z,22.63
2023-01-25T21:09:42.718Z,20.63
2023-01-25T21:14:46.514Z,18.63
2023-01-25T21:19:50.067Z,22.15
2023-01-25T21:24:55.139Z,18.85
2023-01-25T21:29:58.621Z,20.40
2023-01-25T21:35:02.299Z,18.80
2023-01-25T21:40:08.735Z,18.75
2023-01-25T21:45:38.455Z,20.05
2023-01-25T21:50:59.866Z,20.15
2023-01-25T21:56:04.933Z,19.48
2023-01-25T22:01:10.645Z,20.48
2023-01-25T22:06:14.178Z,22.25
2023-01-25T22:11:18.926Z,21.83
2023-01-25T22:16:22.979Z,20.50
2023-01-25T22:21:28.777Z,22.10
2023-01-25T22:26:43.838Z,19.35
2023-01-25T22:31:47.703Z,18.80
2023-01-25T22:36:51.164Z,19.48
2023-01-25T22:41:56.876Z,21.00
2023-01-25T22:47:00.297Z,27.92
2023-01-25T22:52:04.203Z,26.40
2023-01-25T22:57:09.325Z,28.80
2023-01-25T23:02:13.188Z,26.40
2023-01-25T23:07:18.922Z,21.40
2023-01-25T23:12:24.634Z,22.17
2023-01-25T23:17:45.775Z,21.13
2023-01-25T23:22:51.595Z,19.75
2023-01-25T23:27:56.416Z,18.50
2023-01-25T23:32:59.889Z,17.15
2023-01-25T23:38:03.535Z,17.52
2023-01-25T23:43:08.437Z,24.35
2023-01-25T23:48:12.123Z,20.65
2023-01-25T23:53:15.575Z,18.15
2023-01-25T23:58:20.805Z,17.35
